This is the latest recevied weather packets stored in our database for station/object KQ4HEI. If no packets are shown the sender has not sent any weather packets the latest 10 day(s).
| Time | Temp. | Humidity | Pressure | Rain* | Wind** | Luminosity | Snow |
|---|---|---|---|---|---|---|---|
| 1788371492 | 34.44° C | 62% | 1015.5 hPa | 0 mm | - | - | - |
| 1788369692 | 35° C | 61% | 1016.1 hPa | 0 mm | - | - | - |
| 1788369092 | 35.56° C | 61% | 1016.4 hPa | 0 mm | - | - | - |
| 1788366092 | 33.89° C | 67% | 1016.8 hPa | 0 mm | - | - | - |
| 1788364892 | 33.33° C | 69% | 1017 hPa | 0 mm | - | - | - |
| 1788364293 | 32.22° C | 72% | 1017 hPa | 0 mm | - | - | - |
| 1788361892 | 33.33° C | 73% | 1016.9 hPa | 0 mm | - | - | - |
| 1788361292 | 32.78° C | 74% | 1016.9 hPa | 0 mm | - | - | - |
| 1788360692 | 32.78° C | 72% | 1016.8 hPa | 0 mm | - | - | - |
| 1788358893 | 33.33° C | 72% | 1016.6 hPa | 0 mm | - | - | - |
| 1788358293 | 32.78° C | 74% | 1016.7 hPa | 0 mm | - | - | - |
| 1788357692 | 32.78° C | 73% | 1016.7 hPa | 0 mm | - | - | - |
| 1788355892 | 30.56° C | 81% | 1016.7 hPa | 0 mm | - | - | - |
| 1788355293 | 30° C | 83% | 1016.7 hPa | 0 mm | - | - | - |
| 1788354694 | 30° C | 85% | 1016.7 hPa | 0 mm | - | - | - |
| 1788354092 | 28.89° C | 89% | 1016.8 hPa | 0 mm | - | - | - |
| 1788353492 | 28.33° C | 90% | 1016.8 hPa | 0 mm | - | - | - |
| 1788352892 | 27.22° C | 93% | 1016.8 hPa | 0 mm | - | - | - |
| 1788352292 | 26.11° C | 96% | 1016.7 hPa | 0 mm | - | - | - |
| 1788351692 | 25° C | 99% | 1016.6 hPa | 0 mm | - | - | - |
| 1788351092 | 23.33° C | 99% | 1016.6 hPa | 0 mm | - | - | - |
| 1788350492 | 22.78° C | 99% | 1016.5 hPa | 0 mm | - | - | - |
| 1788348692 | 22.22° C | 99% | 1016.2 hPa | 0 mm | - | - | - |
| 1788348092 | 22.22° C | 99% | 1016.1 hPa | 0 mm | - | - | - |
| 1788347492 | 22.22° C | 99% | 1015.9 hPa | 0 mm | - | - | - |
* Rain latest hour (hover to see other rain measurements)
** Current wind speed in m/s (hover to see current wind gust speed)